Time;durP1;ratioP1;P1;durP2;ratioP2;P2;SDS_P1;SDS_P2;PMS_P1;PMS_P2;Temp;Humidity;BMP_temperature;BMP_pressure;BME280_temperature;BME280_humidity;BME280_pressure;Samples;Min_cycle;Max_cycle;Signal;HPM_P1;HPM_P2
2022/04/05 00:01:15;;;;;;;110.95;100.00;;;8.30;99.80;;;;;;5038080;28;20057;-78
2022/04/05 00:03:42;;;;;;;109.72;99.10;;;8.20;99.80;;;;;;5038290;28;20507;-78
2022/04/05 00:06:09;;;;;;;109.75;98.95;;;8.20;99.70;;;;;;5038258;28;20137;-77
2022/04/05 00:08:36;;;;;;;109.97;99.28;;;8.20;99.90;;;;;;5055920;28;20045;-77
2022/04/05 00:11:03;;;;;;;110.20;99.25;;;8.20;99.70;;;;;;5038007;28;20052;-77
2022/04/05 00:13:30;;;;;;;110.20;99.40;;;8.20;99.70;;;;;;5037962;28;20055;-78
2022/04/05 00:15:58;;;;;;;110.78;99.55;;;8.20;99.70;;;;;;5038009;28;20049;-77
2022/04/05 00:18:25;;;;;;;110.93;100.10;;;8.20;99.70;;;;;;5037614;28;20045;-77
2022/04/05 00:20:52;;;;;;;109.05;98.30;;;8.20;99.60;;;;;;5037733;28;20060;-77
2022/04/05 00:23:19;;;;;;;108.80;98.30;;;8.20;99.60;;;;;;5037738;28;20057;-77
2022/04/05 00:25:46;;;;;;;109.78;99.07;;;8.10;99.60;;;;;;5037676;28;20049;-77
2022/04/05 00:28:13;;;;;;;108.85;98.40;;;8.10;99.60;;;;;;5037642;28;20050;-77
2022/04/05 00:30:40;;;;;;;110.25;99.45;;;8.10;99.60;;;;;;5037708;28;20057;-78
2022/04/05 00:33:08;;;;;;;110.30;99.70;;;8.00;99.60;;;;;;5037446;28;20455;-78
2022/04/05 00:35:35;;;;;;;109.18;98.55;;;8.10;99.60;;;;;;5037697;28;20041;-77
2022/04/05 00:38:02;;;;;;;109.78;98.97;;;8.00;99.60;;;;;;5020506;28;20053;-78
2022/04/05 00:40:30;;;;;;;110.32;99.32;;;8.00;99.60;;;;;;5055581;28;20132;-77
2022/04/05 00:42:58;;;;;;;110.70;99.80;;;8.00;99.60;;;;;;5055444;28;20053;-77
2022/04/05 00:45:25;;;;;;;110.05;99.20;;;7.90;99.60;;;;;;5037484;28;20041;-77
2022/04/05 00:47:54;;;;;;;109.82;99.00;;;8.00;99.60;;;;;;5037491;28;20065;-77
2022/04/05 00:50:23;;;;;;;110.03;99.32;;;7.90;99.60;;;;;;5020833;28;20060;-77
2022/04/05 00:52:51;;;;;;;109.63;98.78;;;7.90;99.60;;;;;;5055294;28;20144;-78
2022/04/05 00:55:21;;;;;;;110.78;99.78;;;7.90;99.60;;;;;;5020883;28;20073;-77
2022/04/05 00:57:50;;;;;;;110.22;99.25;;;7.90;99.70;;;;;;5037102;28;20053;-77
2022/04/05 01:00:18;;;;;;;110.55;99.55;;;7.90;99.60;;;;;;5037324;28;20053;-77
2022/04/05 01:02:48;;;;;;;109.75;99.13;;;7.90;99.70;;;;;;5037292;28;20041;-78
2022/04/05 01:05:18;;;;;;;111.13;100.30;;;7.90;99.60;;;;;;5036805;28;20045;-77
2022/04/05 01:07:48;;;;;;;110.05;99.15;;;7.90;99.60;;;;;;5054927;28;20054;-77
2022/04/05 01:10:16;;;;;;;110.90;100.05;;;7.90;99.50;;;;;;5037120;28;20053;-77
2022/04/05 01:12:43;;;;;;;107.93;97.32;;;7.90;99.60;;;;;;5037559;28;20053;-77
2022/04/05 01:15:11;;;;;;;109.78;99.05;;;7.90;99.50;;;;;;5056264;28;20549;-77
2022/04/05 01:17:41;;;;;;;109.80;99.13;;;7.90;99.50;;;;;;5036731;28;20053;-77
2022/04/05 01:20:09;;;;;;;109.40;98.75;;;7.90;99.50;;;;;;5036948;28;20486;-77
2022/04/05 01:22:35;;;;;;;110.00;99.00;;;7.80;99.50;;;;;;5020547;28;20136;-77
2022/04/05 01:25:04;;;;;;;109.95;99.35;;;7.80;99.60;;;;;;5036976;28;20044;-77
2022/04/05 01:27:31;;;;;;;110.97;100.10;;;7.80;99.60;;;;;;5054318;28;20508;-77
2022/04/05 01:29:58;;;;;;;110.65;99.55;;;7.80;99.50;;;;;;5020179;28;20144;-78
2022/04/05 01:32:25;;;;;;;110.22;99.22;;;7.80;99.80;;;;;;5020272;28;20054;-78
2022/04/05 01:34:52;;;;;;;110.90;99.93;;;7.80;99.50;;;;;;5053589;28;20045;-77
2022/04/05 01:37:19;;;;;;;110.22;99.43;;;7.80;99.50;;;;;;5036119;28;20068;-77
2022/04/05 01:39:45;;;;;;;110.50;99.60;;;7.80;99.60;;;;;;5036622;28;20060;-78
2022/04/05 01:42:16;;;;;;;109.35;98.57;;;7.80;99.50;;;;;;5037013;28;20053;-78
2022/04/05 01:44:44;;;;;;;110.07;99.15;;;7.80;99.50;;;;;;5036729;28;20100;-77
2022/04/05 01:47:12;;;;;;;111.15;100.05;;;7.80;99.50;;;;;;5054355;28;20049;-77
2022/04/05 01:49:40;;;;;;;111.22;100.00;;;7.80;99.60;;;;;;5036594;28;20064;-77
2022/04/05 01:52:09;;;;;;;110.43;99.55;;;7.80;99.60;;;;;;5036651;28;20546;-77
2022/04/05 01:54:36;;;;;;;110.80;99.65;;;7.70;99.50;;;;;;5036405;28;20054;-77
2022/04/05 01:57:04;;;;;;;111.85;100.95;;;7.70;99.60;;;;;;5036473;28;20048;-77
2022/04/05 01:59:34;;;;;;;110.45;99.65;;;7.70;99.60;;;;;;5036481;28;21066;-77
2022/04/05 02:02:05;;;;;;;110.35;99.32;;;7.70;99.60;;;;;;5036694;28;20141;-77
2022/04/05 02:04:32;;;;;;;110.38;99.32;;;7.70;99.60;;;;;;5053333;28;20049;-77
2022/04/05 02:06:59;;;;;;;110.05;99.18;;;7.70;99.60;;;;;;5035301;28;20412;-77
2022/04/05 02:09:26;;;;;;;109.95;99.28;;;7.80;99.60;;;;;;5036120;28;20045;-77
2022/04/05 02:11:54;;;;;;;110.40;99.35;;;7.70;99.60;;;;;;5036354;28;20136;-77
2022/04/05 02:15:10;;;;;;;108.35;97.63;;;7.70;99.50;;;;;;5031318;28;20053;-77
2022/04/05 02:17:53;;;;;;;110.15;99.20;;;7.70;99.50;;;;;;5019044;28;20435;-77
2022/04/05 02:20:25;;;;;;;109.95;98.95;;;7.70;99.50;;;;;;5019469;28;20055;-77
2022/04/05 02:22:53;;;;;;;109.78;99.18;;;7.70;99.50;;;;;;5036292;28;20053;-78
2022/04/05 02:25:28;;;;;;;109.07;98.40;;;7.70;99.50;;;;;;5036102;28;20587;-77
2022/04/05 02:27:58;;;;;;;109.70;98.82;;;7.70;99.50;;;;;;5019259;28;20060;-78
2022/04/05 02:30:34;;;;;;;110.93;99.88;;;7.70;99.60;;;;;;5019389;28;20049;-77
2022/04/05 02:33:02;;;;;;;110.32;99.60;;;7.70;99.50;;;;;;5019315;28;20055;-77
2022/04/05 02:35:30;;;;;;;110.18;99.38;;;7.70;99.50;;;;;;5053705;28;20053;-77
2022/04/05 02:38:00;;;;;;;110.25;99.53;;;7.60;99.30;;;;;;5035103;28;20077;-77
2022/04/05 02:40:28;;;;;;;109.68;99.00;;;7.70;99.30;;;;;;5019639;28;20052;-78
2022/04/05 02:42:57;;;;;;;111.72;100.85;;;7.60;99.40;;;;;;5018889;28;20139;-78
2022/04/05 02:45:25;;;;;;;110.28;99.38;;;7.60;99.40;;;;;;5035603;28;20045;-77
2022/04/05 02:47:54;;;;;;;110.60;99.80;;;7.70;99.40;;;;;;5019101;28;20057;-77
2022/04/05 02:50:23;;;;;;;109.95;99.15;;;7.60;99.40;;;;;;5036108;28;20452;-78
2022/04/05 02:52:51;;;;;;;110.00;99.22;;;7.70;99.40;;;;;;5019249;28;20077;-77
2022/04/05 02:55:19;;;;;;;109.80;99.03;;;7.60;99.40;;;;;;5035719;28;20046;-78
2022/04/05 02:57:47;;;;;;;109.50;98.90;;;7.70;99.40;;;;;;5035088;28;20419;-77
2022/04/05 03:00:21;;;;;;;109.85;98.95;;;7.70;99.40;;;;;;5035624;28;20161;-77
2022/04/05 03:02:49;;;;;;;110.57;99.55;;;7.60;99.40;;;;;;5035391;28;20550;-77
2022/04/05 03:05:22;;;;;;;110.30;99.35;;;7.60;99.50;;;;;;5035595;28;20041;-77
2022/04/05 03:07:51;;;;;;;110.88;99.97;;;7.60;99.50;;;;;;5035556;28;20140;-77
2022/04/05 03:10:18;;;;;;;111.72;100.63;;;7.60;99.50;;;;;;5035512;28;20045;-78
2022/04/05 03:12:50;;;;;;;110.68;99.50;;;7.60;99.50;;;;;;5018789;28;20136;-78
2022/04/05 03:15:19;;;;;;;109.75;98.90;;;7.60;99.50;;;;;;5035150;28;20049;-77
2022/04/05 03:17:47;;;;;;;109.63;98.82;;;7.60;99.50;;;;;;5035299;28;20252;-77
2022/04/05 03:20:21;;;;;;;110.03;99.22;;;7.60;99.50;;;;;;5037418;28;20060;-77
2022/04/05 03:22:52;;;;;;;110.28;99.47;;;7.60;99.50;;;;;;5038962;28;20053;-77
2022/04/05 03:25:19;;;;;;;110.45;99.65;;;7.70;99.50;;;;;;5056658;28;20053;-77
2022/04/05 03:27:48;;;;;;;110.82;99.82;;;7.70;99.50;;;;;;5038531;28;20107;-77
2022/04/05 03:30:22;;;;;;;112.25;101.03;;;7.60;99.50;;;;;;5039054;28;20053;-77
2022/04/05 03:32:49;;;;;;;112.38;101.43;;;7.70;99.60;;;;;;5038749;28;20057;-77
2022/04/05 03:35:17;;;;;;;111.32;100.40;;;7.70;99.60;;;;;;5021834;28;20045;-77
2022/04/05 03:37:47;;;;;;;111.40;100.28;;;7.70;99.60;;;;;;5038044;28;20107;-78
2022/04/05 03:40:15;;;;;;;110.55;99.82;;;7.70;99.60;;;;;;5022013;28;20076;-77
2022/04/05 03:42:43;;;;;;;112.03;100.65;;;7.70;99.60;;;;;;5038479;28;20173;-77
2022/04/05 03:45:11;;;;;;;110.88;100.03;;;7.70;99.60;;;;;;5038391;28;20045;-77
2022/04/05 03:47:39;;;;;;;110.78;99.85;;;7.60;99.60;;;;;;5021285;28;20048;-77
2022/04/05 03:50:08;;;;;;;110.68;99.80;;;7.60;99.50;;;;;;5038469;28;20132;-77
2022/04/05 03:52:38;;;;;;;110.80;99.60;;;7.70;99.70;;;;;;5038519;28;20636;-77
2022/04/05 03:55:08;;;;;;;111.82;100.53;;;7.70;99.70;;;;;;5038581;28;20050;-77
2022/04/05 03:57:37;;;;;;;110.20;99.32;;;7.70;99.70;;;;;;5021461;28;20430;-77
2022/04/05 04:00:06;;;;;;;111.70;100.38;;;7.70;99.60;;;;;;5038125;28;20056;-77
2022/04/05 04:02:42;;;;;;;112.10;100.72;;;7.70;99.70;;;;;;5055045;28;20069;-77
2022/04/05 04:05:16;;;;;;;111.15;99.82;;;7.70;99.70;;;;;;5038096;28;20056;-77
2022/04/05 04:07:46;;;;;;;111.03;99.90;;;7.70;99.70;;;;;;5037855;28;20633;-77
2022/04/05 04:10:14;;;;;;;112.90;101.65;;;7.70;99.70;;;;;;5021514;28;20050;-77
2022/04/05 04:12:41;;;;;;;111.72;100.68;;;7.70;99.70;;;;;;5037820;28;20049;-78
2022/04/05 04:15:10;;;;;;;112.05;100.85;;;7.70;99.70;;;;;;5038126;28;20791;-77
2022/04/05 04:17:37;;;;;;;111.55;100.32;;;7.70;99.70;;;;;;5021082;28;20045;-77
2022/04/05 04:20:07;;;;;;;111.90;100.20;;;7.60;99.70;;;;;;5037503;28;20130;-77
2022/04/05 04:22:35;;;;;;;113.15;101.78;;;7.70;99.80;;;;;;5037953;28;20526;-77
2022/04/05 04:25:03;;;;;;;112.68;101.22;;;7.70;99.80;;;;;;5037855;28;20041;-77
2022/04/05 04:27:31;;;;;;;111.15;100.20;;;7.70;99.80;;;;;;5037791;28;20049;-77
2022/04/05 04:30:00;;;;;;;111.55;100.28;;;7.70;99.80;;;;;;5037140;28;20076;-77
2022/04/05 04:32:27;;;;;;;111.97;100.80;;;7.70;99.80;;;;;;5021043;28;20052;-78
2022/04/05 04:34:54;;;;;;;112.50;101.32;;;7.70;99.80;;;;;;5037395;28;20132;-77
2022/04/05 04:37:21;;;;;;;111.93;100.85;;;7.70;99.80;;;;;;5055147;28;20056;-77
2022/04/05 04:39:52;;;;;;;112.97;101.65;;;7.60;99.80;;;;;;5055189;28;20050;-77
2022/04/05 04:42:19;;;;;;;111.90;100.90;;;7.70;99.80;;;;;;5037675;28;20056;-77
2022/04/05 04:44:47;;;;;;;114.03;102.70;;;7.60;99.80;;;;;;5055284;28;20053;-77
2022/04/05 04:47:15;;;;;;;113.80;102.10;;;7.60;99.80;;;;;;5036883;28;20057;-77
2022/04/05 04:49:42;;;;;;;113.18;101.75;;;7.60;99.80;;;;;;5020796;28;20045;-78
2022/04/05 04:52:08;;;;;;;111.80;100.72;;;7.60;99.80;;;;;;5054843;28;20058;-77
2022/04/05 04:54:35;;;;;;;113.55;102.22;;;7.60;99.80;;;;;;5036832;28;20494;-77
2022/04/05 04:57:02;;;;;;;113.38;102.03;;;7.60;99.90;;;;;;5054615;28;20124;-78
2022/04/05 04:59:29;;;;;;;112.88;101.70;;;7.60;99.90;;;;;;5037203;28;20057;-78
2022/04/05 05:01:58;;;;;;;111.63;100.38;;;7.60;99.90;;;;;;5036978;28;20493;-77
2022/04/05 05:04:25;;;;;;;113.68;102.53;;;7.60;99.90;;;;;;5037287;28;20056;-77
2022/04/05 05:06:53;;;;;;;115.63;104.07;;;7.60;99.90;;;;;;5053346;28;20183;-77
2022/04/05 05:09:20;;;;;;;113.05;101.95;;;7.60;99.80;;;;;;5036882;28;20108;-78
2022/04/05 05:11:47;;;;;;;112.18;101.18;;;7.60;99.90;;;;;;5054724;28;20408;-77
2022/04/05 05:14:14;;;;;;;110.55;99.68;;;7.70;99.90;;;;;;5036581;28;20516;-77
2022/04/05 05:16:40;;;;;;;112.75;101.50;;;7.70;99.80;;;;;;5036529;28;20705;-78
2022/04/05 05:19:09;;;;;;;114.50;103.15;;;7.70;99.90;;;;;;5035406;28;20060;-77
2022/04/05 05:21:36;;;;;;;111.88;100.22;;;7.70;99.80;;;;;;5033646;28;20046;-76
2022/04/05 05:24:03;;;;;;;116.07;104.35;;;7.70;99.80;;;;;;5034976;28;20953;-77
2022/04/05 05:26:30;;;;;;;115.25;104.03;;;7.70;99.80;;;;;;5035861;28;20132;-77
2022/04/05 05:28:57;;;;;;;111.45;100.35;;;7.60;99.80;;;;;;5035920;28;20063;-76
2022/04/05 05:31:23;;;;;;;114.40;103.10;;;7.60;99.90;;;;;;5053774;28;20104;-77
2022/04/05 05:33:50;;;;;;;115.47;103.78;;;7.60;99.90;;;;;;5035387;28;20056;-77
2022/04/05 05:36:19;;;;;;;114.85;103.45;;;7.60;99.90;;;;;;5054465;28;20065;-77
2022/04/05 05:38:45;;;;;;;114.75;103.38;;;7.60;99.90;;;;;;5037160;28;20133;-77
2022/04/05 05:41:12;;;;;;;116.65;104.97;;;7.60;99.90;;;;;;5036522;28;20054;-77
2022/04/05 05:43:41;;;;;;;115.57;103.97;;;7.60;99.90;;;;;;5053280;28;20132;-77
2022/04/05 05:46:08;;;;;;;114.55;103.22;;;7.60;99.90;;;;;;5036665;28;20107;-77
2022/04/05 05:48:35;;;;;;;116.20;104.38;;;7.60;99.90;;;;;;5036483;28;20088;-77
2022/04/05 05:51:02;;;;;;;116.68;105.35;;;7.60;99.90;;;;;;5036467;28;20053;-77
2022/04/05 05:53:30;;;;;;;114.10;103.03;;;7.60;99.90;;;;;;5036304;28;20803;-77
2022/04/05 05:55:57;;;;;;;113.05;101.75;;;7.70;99.90;;;;;;5035952;28;20056;-76
2022/04/05 05:58:24;;;;;;;114.07;102.53;;;7.60;99.90;;;;;;5036228;28;20132;-77
2022/04/05 06:00:52;;;;;;;114.13;102.90;;;7.60;99.90;;;;;;5053530;28;20913;-77
2022/04/05 06:03:19;;;;;;;115.15;103.70;;;7.60;99.90;;;;;;5035686;28;20049;-78
2022/04/05 06:05:47;;;;;;;113.72;102.43;;;7.60;99.90;;;;;;5035466;28;20542;-77
2022/04/05 06:08:15;;;;;;;114.50;103.00;;;7.60;99.90;;;;;;5034788;28;20057;-80
2022/04/05 06:10:43;;;;;;;114.68;103.50;;;7.60;99.90;;;;;;5019148;28;20470;-81
2022/04/05 06:13:10;;;;;;;114.88;103.65;;;7.60;99.90;;;;;;5036111;28;20057;-80
2022/04/05 06:15:37;;;;;;;115.43;103.85;;;7.70;99.90;;;;;;5035947;28;20523;-79
2022/04/05 06:18:04;;;;;;;114.72;103.30;;;7.60;99.80;;;;;;5035539;28;20119;-79
2022/04/05 06:20:31;;;;;;;114.13;102.75;;;7.60;99.90;;;;;;5036172;28;20059;-79
2022/04/05 06:23:00;;;;;;;112.88;101.80;;;7.60;99.90;;;;;;5036058;28;20049;-79
2022/04/05 06:25:29;;;;;;;114.05;102.63;;;7.60;99.90;;;;;;5035163;28;20724;-78
2022/04/05 06:27:57;;;;;;;113.93;102.80;;;7.60;99.80;;;;;;5034388;28;20107;-79
2022/04/05 06:30:25;;;;;;;114.80;103.53;;;7.60;99.80;;;;;;5034964;28;20061;-79
2022/04/05 06:32:52;;;;;;;114.72;103.43;;;7.60;99.80;;;;;;5034884;28;20180;-79
2022/04/05 06:35:19;;;;;;;113.45;102.25;;;7.60;99.80;;;;;;5034951;28;20053;-79
2022/04/05 06:37:46;;;;;;;114.15;102.88;;;7.60;99.70;;;;;;5035389;28;20087;-79
2022/04/05 06:40:15;;;;;;;113.18;102.28;;;7.60;99.70;;;;;;5035228;28;20053;-79
2022/04/05 06:42:43;;;;;;;112.97;101.93;;;7.60;99.70;;;;;;5035065;28;20056;-80
2022/04/05 06:45:14;;;;;;;115.18;103.97;;;7.70;99.70;;;;;;5032667;28;20053;-80
2022/04/05 06:47:41;;;;;;;115.80;104.57;;;7.60;99.60;;;;;;5034146;28;20559;-79
2022/04/05 06:50:09;;;;;;;113.10;102.28;;;7.70;99.60;;;;;;5035176;28;20053;-79
2022/04/05 06:52:38;;;;;;;115.03;103.97;;;7.70;99.50;;;;;;5035228;28;20136;-81
2022/04/05 06:55:06;;;;;;;113.70;102.70;;;7.70;99.50;;;;;;5038539;28;20092;-80
2022/04/05 06:57:33;;;;;;;114.60;103.45;;;7.60;99.40;;;;;;5038662;28;20515;-81
2022/04/05 07:00:00;;;;;;;113.88;102.97;;;7.70;99.40;;;;;;5038680;28;20132;-81
2022/04/05 07:02:28;;;;;;;117.75;106.22;;;7.70;99.40;;;;;;5038089;28;20577;-81
2022/04/05 07:04:55;;;;;;;114.88;103.82;;;7.70;99.30;;;;;;5038367;28;20132;-80
2022/04/05 07:07:22;;;;;;;114.00;102.90;;;7.70;99.30;;;;;;5038388;28;20060;-80
2022/04/05 07:09:49;;;;;;;113.50;102.60;;;7.70;99.30;;;;;;5037726;28;20076;-79
2022/04/05 07:12:16;;;;;;;114.93;103.55;;;7.70;99.20;;;;;;5022031;28;20133;-79
2022/04/05 07:14:43;;;;;;;114.75;103.78;;;7.70;99.20;;;;;;5037895;28;20059;-79
2022/04/05 07:17:10;;;;;;;114.82;103.60;;;7.70;99.10;;;;;;5037721;28;20053;-79
2022/04/05 07:19:38;;;;;;;114.45;103.30;;;7.70;99.20;;;;;;5052113;28;20057;-79
2022/04/05 07:22:05;;;;;;;112.60;101.80;;;7.70;99.20;;;;;;5039061;28;20053;-79
2022/04/05 07:24:32;;;;;;;111.35;100.47;;;7.70;99.00;;;;;;5056715;28;20097;-79
2022/04/05 07:26:59;;;;;;;113.78;102.70;;;7.70;99.10;;;;;;5038434;28;20049;-79
2022/04/05 07:29:26;;;;;;;110.28;99.55;;;7.70;99.10;;;;;;5038625;28;20508;-79
2022/04/05 07:31:53;;;;;;;112.18;101.38;;;7.80;99.10;;;;;;5056240;28;20049;-79
2022/04/05 07:34:19;;;;;;;111.15;100.38;;;7.80;99.10;;;;;;5038414;28;20053;-79
2022/04/05 07:36:48;;;;;;;111.57;100.60;;;7.80;99.00;;;;;;5038082;28;20053;-79
2022/04/05 07:39:15;;;;;;;111.38;100.68;;;7.80;99.00;;;;;;5037098;28;20057;-79
2022/04/05 07:41:42;;;;;;;110.63;99.90;;;7.80;99.10;;;;;;5037591;28;20100;-79
2022/04/05 07:44:09;;;;;;;113.88;103.07;;;7.80;99.10;;;;;;5037176;28;20046;-79
2022/04/05 07:46:36;;;;;;;113.57;102.78;;;7.90;99.30;;;;;;5036001;28;20163;-79
2022/04/05 07:49:03;;;;;;;110.25;99.75;;;7.90;99.30;;;;;;5037508;28;20050;-81
2022/04/05 07:51:30;;;;;;;112.43;101.63;;;7.90;99.30;;;;;;5037165;28;20141;-80
2022/04/05 07:53:58;;;;;;;111.45;100.65;;;8.00;99.30;;;;;;5037842;28;20106;-79
2022/04/05 07:56:25;;;;;;;110.43;99.68;;;7.90;99.30;;;;;;5037108;28;20061;-78
2022/04/05 07:58:53;;;;;;;113.97;103.07;;;8.00;99.30;;;;;;5055394;28;20081;-77
2022/04/05 08:01:19;;;;;;;110.00;99.32;;;8.00;99.30;;;;;;5037166;28;20081;-77
2022/04/05 08:03:47;;;;;;;111.47;100.78;;;8.00;99.30;;;;;;5037754;28;20054;-77
2022/04/05 08:06:14;;;;;;;111.05;100.10;;;8.10;99.40;;;;;;5036366;28;20148;-78
2022/04/05 08:08:41;;;;;;;112.80;102.00;;;8.10;99.30;;;;;;5036815;28;20124;-78
2022/04/05 08:11:09;;;;;;;111.28;100.47;;;8.10;99.30;;;;;;5055082;28;20053;-78
2022/04/05 08:13:36;;;;;;;110.45;99.75;;;8.10;99.30;;;;;;5054812;28;20080;-79
2022/04/05 08:16:03;;;;;;;114.22;103.45;;;8.10;99.20;;;;;;5037332;28;20136;-78
2022/04/05 08:18:30;;;;;;;112.80;101.95;;;8.10;99.30;;;;;;5050966;28;20056;-79
2022/04/05 08:20:57;;;;;;;112.35;101.50;;;8.10;99.20;;;;;;5018159;28;20057;-78
2022/04/05 08:23:24;;;;;;;111.22;100.30;;;8.20;99.30;;;;;;5054926;28;20131;-77
2022/04/05 08:25:51;;;;;;;112.05;101.28;;;8.20;99.30;;;;;;5055035;28;20507;-80
2022/04/05 08:28:19;;;;;;;110.35;99.85;;;8.20;99.30;;;;;;5036985;28;20132;-79
2022/04/05 08:30:46;;;;;;;112.35;101.80;;;8.20;99.30;;;;;;5036946;28;20042;-79
2022/04/05 08:33:13;;;;;;;112.13;101.25;;;8.20;99.30;;;;;;5036991;28;20049;-80
2022/04/05 08:35:40;;;;;;;112.55;101.80;;;8.20;99.30;;;;;;5036451;28;20045;-77
2022/04/05 08:38:08;;;;;;;110.45;99.80;;;8.20;99.20;;;;;;5053966;28;20061;-80
2022/04/05 08:40:35;;;;;;;110.50;99.60;;;8.20;99.30;;;;;;5037030;28;20527;-80
2022/04/05 08:43:01;;;;;;;111.78;101.00;;;8.30;99.40;;;;;;5037403;28;20124;-80
2022/04/05 08:45:30;;;;;;;112.00;101.50;;;8.30;99.50;;;;;;5037707;28;20417;-80
2022/04/05 08:47:59;;;;;;;111.05;100.53;;;8.30;99.50;;;;;;5037322;28;20054;-80
2022/04/05 08:50:28;;;;;;;111.50;100.80;;;8.30;99.50;;;;;;5037358;28;20063;-80
2022/04/05 08:52:56;;;;;;;111.05;100.55;;;8.30;99.60;;;;;;5034411;28;20158;-81
2022/04/05 08:55:24;;;;;;;111.40;101.00;;;8.30;99.60;;;;;;5036537;28;20496;-81
2022/04/05 08:57:51;;;;;;;112.82;102.20;;;8.40;99.70;;;;;;5054053;28;20057;-81
2022/04/05 09:00:19;;;;;;;111.28;100.85;;;8.40;99.70;;;;;;5019876;28;20057;-80
2022/04/05 09:02:59;;;;;;;113.80;103.20;;;8.40;99.80;;;;;;5036878;28;20057;-76
2022/04/05 09:05:31;;;;;;;113.32;102.72;;;8.40;99.90;;;;;;5036105;28;20514;-79
2022/04/05 09:08:13;;;;;;;110.65;100.20;;;8.50;99.90;;;;;;5033602;28;20137;-76
2022/04/05 09:10:40;;;;;;;113.82;103.13;;;8.50;99.90;;;;;;5019287;28;20085;-76
2022/04/05 09:13:11;;;;;;;113.05;102.55;;;8.50;99.90;;;;;;5035917;28;20136;-76
2022/04/05 09:15:38;;;;;;;115.05;104.45;;;8.60;99.90;;;;;;5035036;28;20172;-80
2022/04/05 09:18:07;;;;;;;112.53;102.03;;;8.60;99.90;;;;;;5038244;28;20084;-77
2022/04/05 09:20:46;;;;;;;112.35;101.90;;;8.60;99.90;;;;;;5035601;28;20056;-77
2022/04/05 09:23:24;;;;;;;110.85;100.47;;;8.60;99.90;;;;;;5035507;28;20054;-77
2022/04/05 09:25:59;;;;;;;111.75;101.22;;;8.60;99.90;;;;;;5036554;28;20119;-77
2022/04/05 09:28:28;;;;;;;109.47;99.13;;;8.60;99.90;;;;;;5054482;28;20132;-77
2022/04/05 09:30:58;;;;;;;112.78;102.47;;;8.70;99.90;;;;;;5020216;28;20053;-77
2022/04/05 09:33:29;;;;;;;113.65;103.25;;;8.70;99.90;;;;;;5036335;28;20063;-77
2022/04/05 09:36:13;;;;;;;113.13;102.72;;;8.80;99.90;;;;;;5036123;28;20053;-77
2022/04/05 09:38:42;;;;;;;113.70;103.30;;;8.80;99.90;;;;;;5031526;28;20081;-77
2022/04/05 09:41:11;;;;;;;114.90;104.47;;;8.80;99.90;;;;;;5035421;28;20038;-77
2022/04/05 09:43:38;;;;;;;112.28;101.97;;;8.90;99.90;;;;;;5052232;28;20510;-77
2022/04/05 09:46:05;;;;;;;110.32;100.13;;;8.90;99.90;;;;;;5054360;28;20065;-77
2022/04/05 09:48:36;;;;;;;112.93;102.53;;;8.90;99.90;;;;;;5053522;28;20081;-78
2022/04/05 09:51:05;;;;;;;110.22;100.03;;;9.00;99.90;;;;;;5035158;28;20563;-77
2022/04/05 09:53:44;;;;;;;112.78;102.47;;;9.00;99.90;;;;;;5053117;28;20451;-76
2022/04/05 09:56:14;;;;;;;111.68;101.35;;;9.00;99.90;;;;;;5053486;28;20136;-79
2022/04/05 09:58:47;;;;;;;111.22;100.95;;;9.00;99.90;;;;;;5035102;28;20077;-77
2022/04/05 10:01:14;;;;;;;109.72;99.57;;;9.10;99.90;;;;;;5034638;28;20593;-77
2022/04/05 10:03:44;;;;;;;111.60;101.30;;;9.10;99.90;;;;;;5034701;28;20059;-77
2022/04/05 10:06:11;;;;;;;108.90;98.80;;;9.10;99.90;;;;;;5035502;28;20549;-77
2022/04/05 10:08:39;;;;;;;110.03;99.72;;;9.20;99.90;;;;;;5053450;28;20071;-77
2022/04/05 10:11:06;;;;;;;113.78;103.38;;;9.20;99.90;;;;;;5034775;28;20050;-77
2022/04/05 10:13:33;;;;;;;112.95;102.47;;;9.20;99.90;;;;;;5033883;28;20057;-77
2022/04/05 10:16:01;;;;;;;110.88;100.65;;;9.20;99.90;;;;;;5034988;28;20478;-77
2022/04/05 10:18:36;;;;;;;111.47;101.07;;;9.20;99.90;;;;;;5032489;28;20088;-76
2022/04/05 10:21:05;;;;;;;111.15;100.85;;;9.30;99.90;;;;;;5035699;28;20132;-77
2022/04/05 10:23:34;;;;;;;111.15;100.85;;;9.20;99.90;;;;;;5034962;28;20037;-78
2022/04/05 10:26:01;;;;;;;110.88;100.57;;;9.30;99.90;;;;;;5018764;28;20054;-78
2022/04/05 10:28:30;;;;;;;111.70;101.32;;;9.30;99.90;;;;;;5034609;28;20510;-78
2022/04/05 10:31:04;;;;;;;110.60;100.30;;;9.30;99.90;;;;;;5035069;28;20599;-77
2022/04/05 10:33:39;;;;;;;111.68;101.20;;;9.40;99.90;;;;;;5035261;28;20056;-77
2022/04/05 10:36:08;;;;;;;111.63;101.18;;;9.40;99.90;;;;;;5034597;28;20164;-78
2022/04/05 10:38:35;;;;;;;115.32;104.68;;;9.40;99.90;;;;;;5033982;28;20053;-77
2022/04/05 10:41:17;;;;;;;112.13;101.68;;;9.40;99.90;;;;;;5034827;28;20046;-77
2022/04/05 10:43:50;;;;;;;111.97;101.57;;;9.50;99.90;;;;;;5019195;28;20045;-75
2022/04/05 10:46:41;;;;;;;113.93;103.32;;;9.50;99.90;;;;;;5032689;28;20058;-77
2022/04/05 10:49:08;;;;;;;112.38;101.88;;;9.50;99.90;;;;;;5051054;28;20137;-78
2022/04/05 10:52:12;;;;;;;114.72;104.13;;;9.60;99.90;;;;;;5036702;28;20431;-77
2022/04/05 10:54:42;;;;;;;112.82;102.22;;;9.60;99.90;;;;;;5035738;28;20057;-78
2022/04/05 10:57:29;;;;;;;114.15;103.65;;;9.60;99.90;;;;;;5018975;28;20049;-78
2022/04/05 10:59:58;;;;;;;112.85;102.32;;;9.70;99.90;;;;;;5015752;28;20046;-77
2022/04/05 11:02:35;;;;;;;112.88;102.38;;;9.70;99.90;;;;;;5031402;28;20072;-77
2022/04/05 11:05:28;;;;;;;113.80;103.13;;;9.80;99.90;;;;;;5050454;28;20565;-78
2022/04/05 11:08:05;;;;;;;114.13;103.43;;;9.80;99.90;;;;;;5034400;28;20042;-77
2022/04/05 11:10:45;;;;;;;115.57;104.88;;;9.90;99.90;;;;;;5034504;28;20107;-78
2022/04/05 11:13:13;;;;;;;113.38;102.90;;;10.00;99.90;;;;;;5033760;28;20044;-77
2022/04/05 11:15:41;;;;;;;112.63;102.28;;;10.00;99.80;;;;;;5024694;28;20787;-77
2022/04/05 11:18:09;;;;;;;114.82;104.43;;;10.10;99.80;;;;;;5034414;28;20427;-77
2022/04/05 11:20:39;;;;;;;112.55;102.15;;;10.10;99.80;;;;;;5034672;28;20053;-76
2022/04/05 11:23:07;;;;;;;113.43;103.03;;;10.20;99.70;;;;;;5051414;28;20042;-76
2022/04/05 11:25:34;;;;;;;112.68;102.38;;;10.20;99.90;;;;;;5032839;28;20050;-75
2022/04/05 11:28:11;;;;;;;113.60;103.40;;;10.30;99.80;;;;;;5018897;28;20045;-75
2022/04/05 11:30:45;;;;;;;113.32;103.10;;;10.40;99.40;;;;;;5015155;28;20057;-78
2022/04/05 11:33:45;;;;;;;115.32;104.93;;;10.40;99.30;;;;;;5015183;28;20049;-76
2022/04/05 11:36:14;;;;;;;114.93;104.53;;;10.50;99.30;;;;;;5014568;28;20113;-77
2022/04/05 11:38:47;;;;;;;112.80;102.70;;;10.60;99.30;;;;;;5031520;28;20049;-77
2022/04/05 11:41:20;;;;;;;116.00;105.57;;;10.60;99.10;;;;;;5036347;28;20049;-76
2022/04/05 11:43:50;;;;;;;115.40;105.10;;;10.70;99.10;;;;;;5055931;28;20107;-77
2022/04/05 11:46:19;;;;;;;114.22;104.03;;;10.60;99.10;;;;;;5038235;28;20104;-76
2022/04/05 11:48:48;;;;;;;117.57;107.07;;;10.70;99.20;;;;;;5037979;28;20041;-76
2022/04/05 11:51:18;;;;;;;117.80;107.40;;;10.70;99.20;;;;;;5037196;28;20128;-76
2022/04/05 11:53:48;;;;;;;114.75;104.45;;;10.70;99.00;;;;;;5036704;28;20077;-77
2022/04/05 11:56:18;;;;;;;113.32;102.95;;;10.80;99.00;;;;;;5056029;28;20560;-76
2022/04/05 11:58:48;;;;;;;112.88;102.68;;;10.80;99.10;;;;;;5037437;28;20060;-76
2022/04/05 12:01:20;;;;;;;112.95;102.65;;;10.70;99.10;;;;;;5037746;28;20046;-77
2022/04/05 12:03:49;;;;;;;116.07;105.63;;;10.80;99.20;;;;;;5037581;28;20052;-76
2022/04/05 12:06:19;;;;;;;116.32;105.85;;;10.80;99.10;;;;;;5037591;28;20053;-76
2022/04/05 12:08:48;;;;;;;113.60;103.38;;;10.90;99.20;;;;;;5055166;28;20123;-78
2022/04/05 12:11:18;;;;;;;114.68;104.28;;;10.90;99.00;;;;;;5036024;28;20050;-76
2022/04/05 12:13:56;;;;;;;117.68;106.95;;;10.90;99.10;;;;;;5050519;28;20510;-76
2022/04/05 12:16:24;;;;;;;113.80;103.20;;;10.90;99.00;;;;;;5036999;28;20049;-76
2022/04/05 12:18:52;;;;;;;112.90;102.57;;;10.90;99.00;;;;;;5054752;28;20057;-76
2022/04/05 12:21:21;;;;;;;114.03;103.43;;;11.00;99.00;;;;;;5037155;28;20058;-78
2022/04/05 12:23:50;;;;;;;114.05;103.55;;;10.90;99.10;;;;;;5051858;28;20149;-76
2022/04/05 12:26:20;;;;;;;117.88;107.07;;;10.90;99.10;;;;;;5036867;28;20504;-77
2022/04/05 12:28:50;;;;;;;113.28;102.65;;;11.00;99.10;;;;;;5036138;28;20081;-76